Terminal Aerodrome Forecast
Issued by NWS

Home | Current Version | Previous Version | Text Only | Print | Product List | Glossary On
Versions: 1 2 3 4 5 6 7 8 9 10 11 12 13 14 15
457
FTUS41 KAKQ 271724
TAFPHF
TAF
KPHF 271724Z 2718/2818 22013KT P6SM BKN035 BKN100
     FM272300 19009KT P6SM SCT150
     FM280500 20008KT P6SM BKN060
     FM281100 21007KT P6SM BKN030
     FM281300 22007KT P6SM BKN040=

USA.gov is the U.S. government's official web portal to all federal, state and local government web resources and services.